Atchison, KS (66002)

5:21 PM CDT on September 02, 2015 (GMT -0500)
Shannon Township | | Change Station
CLOSE
Current Station
Personal Weather Station
Location: Atchison, KS
Elevation: 942 ft
Nearby Weather Stations

Elev 942 ft 39.56 °N, 95.16 °W | Updated 1 minute ago

Clear
Clear
88.2 °F
Feels Like 91 °F
N
8.0
Wind Variable Wind from SSW
Gusts 8.0 mph

Today
High -- | Low -- °F
--% Chance of Precip.
Yesterday
High -- | Low -- °F
Precip. -- in
6:49 AM 7:50 PM
Waning Gibbous, 76% visible
Pressure 29.87 in
Visibility 10.0 miles
Clouds Clear
Heat Index 91 °F
Dew Point 67 °F
Humidity 49%
Rainfall 0.30 in
Snow Depth Not available.
UV 4 out of 12
Pollen 10.40 out of 12
Air Quality Not available.
Flu Activity Not available.
METAR KSTJ 022153Z 19013KT 10SM CLR 31/22 A2990 RMK AO2 SLP114 T03060217
Pressure 29.87 in
Visibility 10.0 miles
Clouds Clear
Heat Index 91 °F
Dew Point 67 °F
Humidity 49%
Rainfall 0.30 in
Snow Depth Not available.
UV 4 out of 12
Pollen 10.40 out of 12
Air Quality Not available.
Flu Activity Not available.
METAR KSTJ 022153Z 19013KT 10SM CLR 31/22 A2990 RMK AO2 SLP114 T03060217

10-Day Weather Forecast

×

Almanac

Astronomy

Sep. 02, 2015 Rise Set
Actual Time
Civil Twilight
Nautical Twilight
Astronomical Twilight
Moon
Length of Visible Light
Length of Day
Tomorrow will be .
, % of the Moon is Illuminated

Today's Extremes

State Highs State Lows

Community

WunderPhotos

Upload Photos

1,851,828 photos uploaded!

WunderBlogs® & News

Nearby

Air Quality

  Air Quality AQ Index Pollutant
Not available.

Snow Depth

Station Depth Elevation

Earthquake Activity

City Distance Mag. Time & Date
Minimum magnitude displayed is 2.5.

Coastal Water Temperatures

Place Temperature

Stations

Nearby Weather Stations

Station Location Temp. Windchill Dew Point Humidity Wind Precip. Elev Updated Type